createdAt,value
2022-11-21T00:01:26.498Z,10.97
2022-11-21T00:06:51.616Z,9.37
2022-11-21T00:12:16.594Z,10.23
2022-11-21T00:17:38.712Z,9.17
2022-11-21T00:23:01.104Z,10.13
2022-11-21T00:28:23.746Z,9.43
2022-11-21T00:33:45.904Z,9.13
2022-11-21T00:39:08.115Z,9.60
2022-11-21T00:44:30.404Z,8.90
2022-11-21T00:49:52.881Z,10.60
2022-11-21T00:55:15.405Z,9.00
2022-11-21T01:00:37.914Z,9.13
2022-11-21T01:06:01.898Z,8.90
2022-11-21T01:11:24.227Z,11.20
2022-11-21T01:16:46.446Z,10.93
2022-11-21T01:22:09.063Z,10.23
2022-11-21T01:27:31.623Z,10.53
2022-11-21T01:32:53.902Z,10.20
2022-11-21T01:38:16.064Z,10.77
2022-11-21T01:43:39.168Z,10.70
2022-11-21T01:49:16.396Z,11.43
2022-11-21T01:54:53.847Z,9.97
2022-11-21T02:00:21.740Z,10.03
2022-11-21T02:05:43.934Z,9.93
2022-11-21T02:11:16.795Z,9.20
2022-11-21T02:16:39.917Z,10.60
2022-11-21T02:22:16.678Z,9.87
2022-11-21T02:27:39.197Z,9.57
2022-11-21T02:33:01.585Z,9.63
2022-11-21T02:38:37.687Z,10.70
2022-11-21T02:44:05.592Z,10.37
2022-11-21T02:49:40.724Z,10.83
2022-11-21T02:55:03.119Z,9.57
2022-11-21T03:00:25.344Z,9.60
2022-11-21T03:05:48.686Z,9.87
2022-11-21T03:11:10.828Z,10.20
2022-11-21T03:16:32.965Z,10.23
2022-11-21T03:21:55.977Z,10.20
2022-11-21T03:27:18.733Z,10.40
2022-11-21T03:32:41.065Z,10.57
2022-11-21T03:38:03.167Z,10.10
2022-11-21T03:43:25.378Z,10.37
2022-11-21T03:48:47.553Z,10.77
2022-11-21T03:54:10.470Z,10.53
2022-11-21T03:59:32.772Z,10.30
2022-11-21T04:04:55.012Z,10.00
2022-11-21T04:10:17.348Z,11.30
2022-11-21T04:15:41.519Z,11.40
2022-11-21T04:21:07.879Z,11.37
2022-11-21T04:26:30.115Z,11.53
2022-11-21T04:31:52.251Z,11.13
2022-11-21T04:37:14.460Z,10.27
2022-11-21T04:42:37.324Z,12.10
2022-11-21T04:48:00.041Z,11.03
2022-11-21T04:53:22.254Z,10.33
2022-11-21T04:58:45.026Z,11.23
2022-11-21T05:04:07.502Z,11.17
2022-11-21T05:09:29.680Z,10.47
2022-11-21T05:14:52.113Z,10.63
2022-11-21T05:20:15.052Z,11.17
2022-11-21T05:25:37.439Z,10.30
2022-11-21T05:30:59.813Z,10.43
2022-11-21T05:36:23.276Z,10.90
2022-11-21T05:41:45.707Z,11.47
2022-11-21T05:47:08.040Z,11.53
2022-11-21T05:52:30.554Z,11.33
2022-11-21T05:57:52.786Z,11.40
2022-11-21T06:03:27.181Z,12.07
2022-11-21T06:08:49.793Z,10.87
2022-11-21T06:14:12.099Z,11.43
2022-11-21T06:19:34.306Z,12.43
2022-11-21T06:24:56.728Z,10.57
2022-11-21T06:30:22.188Z,11.13
2022-11-21T06:35:44.939Z,12.17
2022-11-21T06:41:19.232Z,11.90
2022-11-21T06:46:41.362Z,11.07
2022-11-21T06:52:03.845Z,10.97
2022-11-21T06:57:25.981Z,11.07
2022-11-21T07:02:48.267Z,11.47
2022-11-21T07:08:13.547Z,11.90
2022-11-21T07:13:35.856Z,12.67
2022-11-21T07:18:58.573Z,13.73
2022-11-21T07:24:21.132Z,14.17
2022-11-21T07:29:43.356Z,13.07
2022-11-21T07:35:06.599Z,11.43
2022-11-21T07:40:29.472Z,13.43
2022-11-21T07:45:52.166Z,13.27
2022-11-21T07:51:14.266Z,10.97
2022-11-21T07:56:36.427Z,12.07
2022-11-21T08:01:59.136Z,12.13
2022-11-21T08:07:22.935Z,10.70
2022-11-21T08:12:46.560Z,12.77
2022-11-21T08:18:19.300Z,13.13
2022-11-21T08:23:41.766Z,13.47
2022-11-21T08:29:04.063Z,13.20
2022-11-21T08:34:26.271Z,11.80
2022-11-21T08:39:48.711Z,11.57
2022-11-21T08:45:11.072Z,12.27
2022-11-21T08:50:33.631Z,11.80
2022-11-21T08:56:00.112Z,12.27
2022-11-21T09:01:25.494Z,12.83
2022-11-21T09:06:48.099Z,12.83
2022-11-21T09:12:10.513Z,13.27
2022-11-21T09:17:51.601Z,14.50
2022-11-21T09:23:16.029Z,13.13
2022-11-21T09:28:38.663Z,13.07
2022-11-21T09:34:01.082Z,14.20
2022-11-21T09:39:23.348Z,13.10
2022-11-21T09:45:08.964Z,13.97
2022-11-21T09:50:50.849Z,12.97
2022-11-21T09:56:20.148Z,11.73
2022-11-21T10:01:42.517Z,13.73
2022-11-21T10:07:06.766Z,12.40
2022-11-21T10:12:59.320Z,13.03
2022-11-21T10:18:52.743Z,14.37
2022-11-21T10:24:40.980Z,12.87
2022-11-21T10:30:07.564Z,13.33
2022-11-21T10:35:38.597Z,12.17
2022-11-21T10:41:12.784Z,12.80
2022-11-21T10:46:35.120Z,12.43
2022-11-21T10:52:06.500Z,13.37
2022-11-21T10:57:31.610Z,12.67
2022-11-21T11:02:56.554Z,11.23
2022-11-21T11:08:18.799Z,13.30
2022-11-21T11:13:59.852Z,13.43
2022-11-21T11:19:35.348Z,13.80
2022-11-21T11:25:05.313Z,13.23
2022-11-21T11:30:27.652Z,13.97
2022-11-21T11:35:50.200Z,13.77
2022-11-21T11:41:24.651Z,13.73
2022-11-21T11:47:05.594Z,13.03
2022-11-21T11:52:36.363Z,13.83
2022-11-21T11:58:01.227Z,12.80
2022-11-21T12:03:52.071Z,14.13
2022-11-21T12:09:43.207Z,13.03
2022-11-21T12:15:36.319Z,13.30
2022-11-21T12:21:15.640Z,12.53
2022-11-21T12:27:02.550Z,15.33
2022-11-21T12:32:59.383Z,14.47
2022-11-21T12:38:55.492Z,14.33
2022-11-21T12:44:40.043Z,14.03
2022-11-21T12:50:40.964Z,13.10
2022-11-21T12:56:11.307Z,12.23
2022-11-21T13:01:52.119Z,13.47
2022-11-21T13:07:15.489Z,12.90
2022-11-21T13:12:52.649Z,13.60
2022-11-21T13:18:21.096Z,13.60
2022-11-21T13:23:43.395Z,13.33
2022-11-21T13:29:10.346Z,13.70
2022-11-21T13:34:37.390Z,14.20
2022-11-21T13:40:28.473Z,12.17
2022-11-21T13:45:53.638Z,11.43
2022-11-21T13:51:27.988Z,11.80
2022-11-21T13:57:19.513Z,11.50
2022-11-21T14:02:56.827Z,10.27
2022-11-21T14:08:24.747Z,10.33
2022-11-21T14:13:49.424Z,9.97
2022-11-21T14:19:19.549Z,9.77
2022-11-21T14:24:43.699Z,10.20
2022-11-21T14:30:06.389Z,9.63
2022-11-21T14:35:28.982Z,10.83
2022-11-21T14:41:11.299Z,10.00
2022-11-21T14:46:36.566Z,10.00
2022-11-21T14:52:01.765Z,9.47
2022-11-21T14:57:30.920Z,9.17
2022-11-21T15:02:59.216Z,9.47
2022-11-21T15:14:18.728Z,9.47
2022-11-21T15:19:42.476Z,9.50
2022-11-21T15:25:15.808Z,9.73
2022-11-21T15:30:38.410Z,8.40
2022-11-21T15:36:13.762Z,10.03
2022-11-21T15:41:37.018Z,8.50
2022-11-21T15:46:59.215Z,9.17
2022-11-21T15:52:21.864Z,8.20
2022-11-21T15:57:44.406Z,8.17
2022-11-21T16:03:06.839Z,9.07
2022-11-21T16:08:29.136Z,8.40
2022-11-21T16:13:53.117Z,8.30
2022-11-21T16:19:15.935Z,9.33
2022-11-21T16:24:38.261Z,9.03
2022-11-21T16:30:00.694Z,9.37
2022-11-21T16:35:23.573Z,11.60
2022-11-21T16:40:59.842Z,10.57
2022-11-21T16:46:25.079Z,9.17
2022-11-21T16:51:47.747Z,9.90
2022-11-21T16:57:10.356Z,10.07
2022-11-21T17:02:32.828Z,9.27
2022-11-21T17:07:55.088Z,10.33
2022-11-21T17:13:17.559Z,8.87
2022-11-21T17:18:40.164Z,10.93
2022-11-21T17:24:02.858Z,10.63
2022-11-21T17:29:25.565Z,10.50
2022-11-21T17:34:48.573Z,12.83
2022-11-21T17:40:12.169Z,13.20
2022-11-21T17:45:35.839Z,12.07
2022-11-21T17:51:09.612Z,12.07
2022-11-21T17:56:34.597Z,13.13
2022-11-21T18:01:57.184Z,13.70
2022-11-21T18:07:19.844Z,10.57
2022-11-21T18:12:42.380Z,13.10
2022-11-21T18:18:04.812Z,13.07
2022-11-21T18:23:27.751Z,12.00
2022-11-21T18:29:07.214Z,9.77
2022-11-21T18:34:33.842Z,11.20
2022-11-21T18:39:56.026Z,10.83
2022-11-21T18:45:18.332Z,10.47
2022-11-21T18:50:40.974Z,11.07
2022-11-21T18:56:08.000Z,11.10
2022-11-21T19:01:32.013Z,10.80
2022-11-21T19:06:54.936Z,10.53
2022-11-21T19:12:18.056Z,12.03
2022-11-21T19:17:40.152Z,10.20
2022-11-21T19:23:02.911Z,12.23
2022-11-21T19:28:26.621Z,11.23
2022-11-21T19:33:48.935Z,14.77
2022-11-21T19:39:11.542Z,10.23
2022-11-21T19:44:34.160Z,12.30
2022-11-21T19:49:56.416Z,11.83
2022-11-21T19:55:18.860Z,11.80
2022-11-21T20:00:41.326Z,11.23
2022-11-21T20:06:09.550Z,14.40
2022-11-21T20:11:32.400Z,11.77
2022-11-21T20:16:55.069Z,11.13
2022-11-21T20:22:17.223Z,9.93
2022-11-21T20:27:39.407Z,10.10
2022-11-21T20:33:04.854Z,11.00
2022-11-21T20:38:29.399Z,12.00
2022-11-21T20:49:48.098Z,11.13
2022-11-21T20:55:10.853Z,10.87
2022-11-21T21:00:34.317Z,10.77
2022-11-21T21:06:06.947Z,10.73
2022-11-21T21:17:11.874Z,11.30
2022-11-21T21:22:34.402Z,10.67
2022-11-21T21:27:56.629Z,11.70
2022-11-21T21:33:18.943Z,11.27
2022-11-21T21:38:41.801Z,11.40
2022-11-21T21:44:04.412Z,12.17
2022-11-21T21:49:26.608Z,11.27
2022-11-21T21:54:49.111Z,10.37
2022-11-21T22:00:12.119Z,11.57
2022-11-21T22:05:34.440Z,11.50
2022-11-21T22:11:02.859Z,11.13
2022-11-21T22:16:25.749Z,10.73
2022-11-21T22:21:47.819Z,11.53
2022-11-21T22:27:10.013Z,11.23
2022-11-21T22:32:32.637Z,11.57
2022-11-21T22:37:54.879Z,11.30
2022-11-21T22:43:17.459Z,11.63
2022-11-21T22:48:40.746Z,10.70
2022-11-21T22:54:02.925Z,11.03
2022-11-21T22:59:25.003Z,11.30
2022-11-21T23:04:47.421Z,10.77
2022-11-21T23:10:10.190Z,12.17
2022-11-21T23:15:32.770Z,10.67
2022-11-21T23:20:55.293Z,10.00
2022-11-21T23:26:17.730Z,10.50
2022-11-21T23:31:40.360Z,10.50
2022-11-21T23:37:02.770Z,9.40
2022-11-21T23:42:25.268Z,9.87
2022-11-21T23:47:47.940Z,10.43
2022-11-21T23:53:10.002Z,10.87
2022-11-21T23:58:32.426Z,10.73
